AIRPORT_AIRPORT_METAR
METAR FOR EPKK
ADDS - METARS form results

(1454 UTC 18 August 2019)
Data provider http://aviationweather.gov/metar/data/
 
METAR text: EPKK 181430Z 25011KT 9999 FEW060 28/17 Q1012
Conditions at: EPKK (KRAKOW/BALICE , PL) observed 1430 UTC 18 August 2019
Temperature: 28.0°C (82°F)
Dewpoint: 17.0°C (63°F) [RH = 51%]
Pressure (altimeter): 29.88 inches Hg (1012.0 mb)
Winds: from the WSW (250 degrees) at 13 MPH (11 knots; 5.7 m/s)
Visibility: 6 or more miles (10+ km)
Ceiling: at least 12,000 feet AGL
Clouds: few clouds at 6000 feet AGL
Weather: no significant weather observed at this time

METAR text: EPKK 181400Z 22010KT 9999 FEW053 27/17 Q1012
Conditions at: EPKK (KRAKOW/BALICE , PL) observed 1400 UTC 18 August 2019
Temperature: 27.0°C (81°F)
Dewpoint: 17.0°C (63°F) [RH = 54%]
Pressure (altimeter): 29.88 inches Hg (1012.0 mb)
Winds: from the SW (220 degrees) at 12 MPH (10 knots; 5.1 m/s)
Visibility: 6 or more miles (10+ km)
Ceiling: at least 12,000 feet AGL
Clouds: few clouds at 5300 feet AGL
Weather: no significant weather observed at this time

Forecast for: EPKK (KRAKOW/BALICE , PL)
Text: TAF EPKK 181430Z 1815/1915 23010KT CAVOK
Forecast period: 1500 to 1700 UTC 18 August 2019
Forecast type: FROM: standard forecast or significant change
Winds: from the SW (230 degrees) at 12 MPH (10 knots; 5.1 m/s)
Visibility: 6 or more miles 10+ km)
Ceiling: unknown
Clouds: missing
Weather: NSW  (no significant weather)
Text: BECMG 1817/1820 VRB02KT
Forecast period: 1700 UTC 18 August 2019 to 1500 UTC 19 August 2019
Forecast type: BECOMING: Conditions expected to become as follows by 2000 UTC 18 August 2019
Winds: variable direction winds at 2 MPH (2 knots; 1.0 m/s)
Visibility: 6 or more miles 10+ km)
Ceiling: unknown
Clouds: missing
Weather: NSW  (no significant weather)

 AIRPORT_AIRPORT_MAP

 AIRPORT_RUNWAY_INFO
AIRPORT_RUNWAY 07 AIRPORT_RUNWAY_LENGTH 8366 ft AIRPORT_RUNWAY_WIDTH 197 ft
AIRPORT_RUNWAY_ELEVATION 792 ft AIRPORT_RUNWAY_THRESHOLD 0 ft AIRPORT_RUNWAY_HEADING 78
AIRPORT_RUNWAY 25 AIRPORT_RUNWAY_LENGTH 8366 ft AIRPORT_RUNWAY_WIDTH 197 ft
AIRPORT_RUNWAY_ELEVATION 779 ft AIRPORT_RUNWAY_THRESHOLD 784 ft AIRPORT_RUNWAY_HEADING 258

 AIRPORT_AIRPORT_FREQUENCIES
AIRPORT_AIRPORT_NAVAIDS_TYPE APP AIRPORT_AIRPORT_NAVAIDS_NAME KRAKOW APP AIRPORT_AIRPORT_NAVAIDS_FREQ 121.075 MHZ
AIRPORT_AIRPORT_NAVAIDS_TYPE ATIS AIRPORT_AIRPORT_NAVAIDS_NAME ATIS AIRPORT_AIRPORT_NAVAIDS_FREQ 126.125 MHZ
AIRPORT_AIRPORT_NAVAIDS_TYPE DIR AIRPORT_AIRPORT_NAVAIDS_NAME KRAKOW DIR AIRPORT_AIRPORT_NAVAIDS_FREQ 123.8 MHZ
AIRPORT_AIRPORT_NAVAIDS_TYPE TWR AIRPORT_AIRPORT_NAVAIDS_NAME KRAKOW DEL AIRPORT_AIRPORT_NAVAIDS_FREQ 118.1 MHZ
AIRPORT_AIRPORT_NAVAIDS_TYPE TWR AIRPORT_AIRPORT_NAVAIDS_NAME KRAKOW TWR AIRPORT_AIRPORT_NAVAIDS_FREQ 123.25 MHZ

 AIRPORT_AIRPORT_NAVAIDS
AIRPORT_AIRPORT_NAVAIDS_TYPE NDB AIRPORT_AIRPORT_NAVAIDS_NAME Krakow AIRPORT_AIRPORT_NAVAIDS_FREQ 353 KHZ



Copyright © 2005-2019 - Virtuel Air Alsace - Tous droits réservés